Cave Springs, Arkansas
Current Conditions -  °F | °C
As of 8:53 PM on Monday 22 Dec 2014 (Local Time) from KXNA Reporting Station
Clear Clear  
Wind Chill: 44°   Ceiling: Unl
Heat Index: 44°   Visibility: 10mi
Dew Point: 42°   Wind: 3mph
Humidity: 93%   Direction: 280°W
Pressure: 29.64"   Gusts: NA
Location:  36.26°N, 94.23°W
Report Text: KXNA 230253Z 28003KT 10SM CLR 07/06 A2964 RMK AO2 SLP036 60000 T00670056 53017
Loading
Personal Weather Stations






























Interactive Weather Map New forecast layout! Learn more

10-Day Weather Forecast

Advertisements
Track Severe Weather on mobile